WetterOnline ( http://www.wetteronline.de )

Wetter aktuell Senden

Aktuelles Wetter: Ulm-Mähringen (592m)

6-stündlich | Neueste Meldungen
Ortszeit Temperatur Wetter
Sa, 23.02. 7:00 -2.6° C leicht bewölkt
Sa, 23.02. 1:00 3.1° C bedeckt
Fr, 22.02. 19:00 4.4° C wolkenlos
Fr, 22.02. 13:00 7.8° C bedeckt
Fr, 22.02. 7:00 5.8° C Sprühregen
Fr, 22.02. 1:00 7.2° C bewölkt
Do, 21.02. 19:00 6.9° C wolkig
Do, 21.02. 13:00 11.1° C wolkenlos
Ortszeit Temperatur Wetter
Sa, 23.02. 11:30 1.7° C wolkig
Sa, 23.02. 11:20 1.7° C wolkig
Sa, 23.02. 11:10 1.4° C wolkig
Sa, 23.02. 11:00 0.7° C leicht bewölkt
Sa, 23.02. 10:50 0.7° C wolkig
Sa, 23.02. 10:40 0.9° C wolkig
Sa, 23.02. 10:30 0.9° C leicht bewölkt
Sa, 23.02. 10:00 -0.7° C wolkenlos
Sa, 23.02. 9:30 -1.3° C wolkenlos
Sa, 23.02. 9:00 -2.0° C wolkenlos
Sa, 23.02. 8:30 -2.5° C wolkenlos
Ortszeit Relative Feuchte Sichtweite
Sa, 23.02. 7:00 94% 9 km
Sa, 23.02. 1:00 90% 28 km
Fr, 22.02. 19:00 88% 30 km
Fr, 22.02. 13:00 84% 11 km
Fr, 22.02. 7:00 100% 1.7 km
Fr, 22.02. 1:00 81% 17 km
Do, 21.02. 19:00 81% 18 km
Do, 21.02. 13:00 61% 24 km
Ortszeit Relative Feuchte Sichtweite
Sa, 23.02. 11:30 66% 22 km
Sa, 23.02. 11:20 66% -
Sa, 23.02. 11:10 69% -
Sa, 23.02. 11:00 72% 22 km
Sa, 23.02. 10:50 72% -
Sa, 23.02. 10:40 74% -
Sa, 23.02. 10:30 79% 22 km
Sa, 23.02. 10:00 81% 17 km
Sa, 23.02. 9:30 85% 15 km
Sa, 23.02. 9:00 91% 10 km
Sa, 23.02. 8:30 95% 8 km
Ortszeit Niederschlagsmenge Niederschlagsart
Sa, 23.02. 7:00 0.0 l/m2 in 12 Std. -
Sa, 23.02. 1:00 0.0 l/m2 in 6 Std. -
Fr, 22.02. 19:00 0.1 l/m2 in 12 Std. -
Fr, 22.02. 13:00 0.1 l/m2 in 6 Std. Sprühregen
Fr, 22.02. 7:00 0.1 l/m2 in 12 Std. Sprühregen
Fr, 22.02. 1:00 0.1 l/m2 in 6 Std. Regen
Do, 21.02. 19:00 0.0 l/m2 in 12 Std. -
Do, 21.02. 13:00 0.0 l/m2 in 6 Std. -
Ortszeit Niederschlagsmenge Niederschlagsart
Sa, 23.02. 11:30 0.0 l/m2 in 1 Std. -
Sa, 23.02. 11:20 keine Meldung -
Sa, 23.02. 11:10 keine Meldung -
Sa, 23.02. 11:00 0.0 l/m2 in 1 Std. -
Sa, 23.02. 10:50 keine Meldung -
Sa, 23.02. 10:40 keine Meldung -
Sa, 23.02. 10:30 0.0 l/m2 in 1 Std. -
Sa, 23.02. 10:00 0.0 l/m2 in 1 Std. -
Sa, 23.02. 9:30 0.0 l/m2 in 1 Std. -
Sa, 23.02. 9:00 0.0 l/m2 in 1 Std. -
Sa, 23.02. 8:30 0.0 l/m2 in 1 Std. -
Ortszeit Stärke Spitze Richtung
km/h Bft. km/h Grad Sektor
Sa, 23.02. 7:00 13 3 33 50° NO
Sa, 23.02. 1:00 18 3 32 60° NO
Fr, 22.02. 19:00 14 3 25 10° N
Fr, 22.02. 13:00 9 2 20 340° N
Fr, 22.02. 7:00 6 1 24 280° W
Fr, 22.02. 1:00 9 2 19 300° NW
Do, 21.02. 19:00 7 2 22 310° NW
Do, 21.02. 13:00 11 2 25 230° SW
Ortszeit Stärke Spitze Richtung
km/h Bft. km/h Grad Sektor
Sa, 23.02. 11:30 22 4 32 70° O
Sa, 23.02. 11:20 22 4 - 70° O
Sa, 23.02. 11:10 22 4 - 60° NO
Sa, 23.02. 11:00 18 3 32 60° NO
Sa, 23.02. 10:50 18 3 - 60° NO
Sa, 23.02. 10:40 17 3 - 80° O
Sa, 23.02. 10:30 17 3 26 70° O
Sa, 23.02. 10:00 19 3 28 70° O
Sa, 23.02. 9:30 18 3 25 70° O
Sa, 23.02. 9:00 14 3 25 60° NO
Sa, 23.02. 8:30 14 3 25 60° NO
Ortszeit Untergrenze Bedeckung Gattung
total tief tief mittel hoch
Sa, 23.02. 7:00 270 m 4/8 4/8 - - -
Sa, 23.02. 1:00 840 m 8/8 8/8 - - -
Fr, 22.02. 19:00 - 0/8 0/8 - - -
Fr, 22.02. 13:00 360 m 8/8 8/8 - - -
Fr, 22.02. 7:00 240 m 7/8 7/8 - - -
Fr, 22.02. 1:00 1500 m 7/8 7/8 - - -
Do, 21.02. 19:00 3000 m 6/8 6/8 - - -
Do, 21.02. 13:00 1380 m 0/8 0/8 - - -
Ortszeit Bedeckungsgrad in Achtel und Wolkenuntergrenze
Sa, 23.02. 11:30 8(9000m)
Sa, 23.02. 11:20 8(9000m)
Sa, 23.02. 11:10 8(9000m)
Sa, 23.02. 11:00 8(9000m)
Sa, 23.02. 10:50 8(9000m)
Sa, 23.02. 10:40 7(9000m)
Sa, 23.02. 10:30 3(9000m)
Sa, 23.02. 10:00 keine Wolken
Sa, 23.02. 9:30 keine Wolken
Sa, 23.02. 9:00 keine Wolken
Sa, 23.02. 8:30 keine Wolken
Ortszeit Luftdruck NN (hPa) Tendenz (hPa in 3 Std.)
Sa, 23.02. 7:00 1041 - 0,3
Sa, 23.02. 1:00 1039 + 0,3
Fr, 22.02. 19:00 1037 + 0,9
Fr, 22.02. 13:00 1035 + 1,2
Fr, 22.02. 7:00 1032 + 1,0
Fr, 22.02. 1:00 1031 + 0,6
Do, 21.02. 19:00 1030 + 1,2
Do, 21.02. 13:00 1028 - 0,3
Ortszeit Luftdruck NN (hPa) Tendenz (hPa in 3 Std.)
Sa, 23.02. 11:30 1040 + 0,3
Sa, 23.02. 11:20 1040 keine Meldung
Sa, 23.02. 11:10 1040 keine Meldung
Sa, 23.02. 11:00 1041 + 0,4
Sa, 23.02. 10:50 1041 keine Meldung
Sa, 23.02. 10:40 1040 keine Meldung
Sa, 23.02. 10:30 1040 + 0,3
Sa, 23.02. 10:00 1040 + 0,2
Sa, 23.02. 9:30 1041 + 0,2
Sa, 23.02. 9:00 1041 - 0,1
Sa, 23.02. 8:30 1041 - 0,1
Ortszeit Schneehöhe (cm)
Sa, 23.02. 7:00 0
Sa, 23.02. 1:00 0
Fr, 22.02. 19:00 0
Fr, 22.02. 13:00 0
Fr, 22.02. 7:00 0
Fr, 22.02. 1:00 0
Do, 21.02. 19:00 0
Do, 21.02. 13:00 0
Ortszeit Schneehöhe (cm)
Sa, 23.02. 11:30 0
Sa, 23.02. 11:20 0
Sa, 23.02. 11:10 0
Sa, 23.02. 11:00 0
Sa, 23.02. 10:50 0
Sa, 23.02. 10:40 0
Sa, 23.02. 10:30 0
Sa, 23.02. 10:00 0
Sa, 23.02. 9:30 0
Sa, 23.02. 9:00 0
Sa, 23.02. 8:30 0
Link zu dieser Seite / Seite empfehlen

Das Wetter in ...